createdAt,value
2023-05-17T00:02:17.590Z,72.99
2023-05-17T00:04:45.438Z,72.87
2023-05-17T00:07:12.174Z,73.05
2023-05-17T00:09:38.874Z,72.94
2023-05-17T00:12:05.924Z,72.98
2023-05-17T00:14:32.745Z,73.22
2023-05-17T00:16:59.443Z,72.82
2023-05-17T00:19:26.246Z,73.16
2023-05-17T00:21:52.999Z,72.94
2023-05-17T00:24:19.911Z,73.00
2023-05-17T00:26:46.578Z,72.95
2023-05-17T00:29:13.240Z,73.05
2023-05-17T00:31:39.895Z,73.28
2023-05-17T00:34:06.567Z,73.50
2023-05-17T00:36:33.216Z,73.51
2023-05-17T00:38:59.950Z,73.50
2023-05-17T00:41:26.608Z,73.23
2023-05-17T00:43:53.345Z,73.60
2023-05-17T00:46:20.060Z,73.26
2023-05-17T00:48:46.870Z,73.24
2023-05-17T00:51:16.383Z,73.10
2023-05-17T00:53:43.361Z,73.43
2023-05-17T00:56:10.093Z,73.15
2023-05-17T00:58:37.340Z,73.26
2023-05-17T01:01:04.211Z,73.43
2023-05-17T01:03:30.974Z,73.28
2023-05-17T01:05:57.767Z,73.31
2023-05-17T01:08:24.579Z,72.99
2023-05-17T01:11:08.965Z,73.09
2023-05-17T01:13:42.757Z,73.06
2023-05-17T01:17:01.300Z,73.51
2023-05-17T01:19:27.973Z,72.89
2023-05-17T01:22:12.675Z,73.25
2023-05-17T01:25:18.822Z,73.02
2023-05-17T01:27:48.282Z,72.90
2023-05-17T01:30:17.388Z,72.99
2023-05-17T01:32:45.283Z,73.29
2023-05-17T01:35:12.438Z,73.19
2023-05-17T01:37:39.943Z,73.14
2023-05-17T01:40:08.983Z,73.05
2023-05-17T01:42:40.395Z,73.37
2023-05-17T01:45:23.388Z,73.34
2023-05-17T01:48:17.972Z,73.34
2023-05-17T01:50:48.534Z,72.96
2023-05-17T01:53:20.704Z,73.21
2023-05-17T01:55:52.324Z,73.20
2023-05-17T01:58:21.937Z,73.65
2023-05-17T02:00:52.520Z,73.66
2023-05-17T02:03:20.418Z,73.55
2023-05-17T02:05:47.337Z,73.36
2023-05-17T02:08:14.452Z,73.65
2023-05-17T02:10:41.137Z,73.37
2023-05-17T02:13:07.852Z,73.56
2023-05-17T02:15:34.643Z,73.28
2023-05-17T02:18:01.653Z,73.56
2023-05-17T02:20:28.414Z,73.37
2023-05-17T02:22:55.087Z,73.67
2023-05-17T02:25:21.750Z,73.56
2023-05-17T02:27:48.432Z,73.22
2023-05-17T02:30:18.363Z,73.56
2023-05-17T02:32:45.432Z,73.68
2023-05-17T02:35:12.515Z,73.65
2023-05-17T02:37:39.235Z,73.68
2023-05-17T02:40:09.667Z,73.44
2023-05-17T02:42:37.181Z,73.82
2023-05-17T02:45:04.513Z,73.53
2023-05-17T02:47:31.540Z,73.69
2023-05-17T02:49:58.368Z,73.76
2023-05-17T02:52:25.088Z,73.84
2023-05-17T02:54:51.894Z,74.17
2023-05-17T02:57:18.654Z,73.83
2023-05-17T02:59:45.899Z,73.95
2023-05-17T03:02:12.635Z,74.26
2023-05-17T03:04:39.339Z,74.23
2023-05-17T03:07:07.375Z,74.36
2023-05-17T03:09:34.559Z,74.19
2023-05-17T03:12:01.378Z,74.56
2023-05-17T03:14:28.098Z,74.32
2023-05-17T03:16:55.100Z,74.55
2023-05-17T03:19:21.920Z,74.79
2023-05-17T03:21:48.663Z,74.62
2023-05-17T03:24:15.697Z,75.04
2023-05-17T03:26:42.406Z,74.49
2023-05-17T03:29:09.200Z,74.69
2023-05-17T03:31:36.182Z,74.36
2023-05-17T03:34:02.943Z,74.23
2023-05-17T03:36:29.721Z,74.32
2023-05-17T03:38:56.412Z,74.38
2023-05-17T03:41:23.109Z,74.71
2023-05-17T03:43:49.769Z,74.35
2023-05-17T03:46:16.563Z,74.57
2023-05-17T03:48:43.254Z,74.57
2023-05-17T03:51:10.116Z,74.31
2023-05-17T03:53:41.287Z,74.20
2023-05-17T03:56:08.093Z,74.05
2023-05-17T03:58:34.794Z,74.18
2023-05-17T04:01:01.924Z,74.12
2023-05-17T04:03:30.057Z,74.46
2023-05-17T04:06:07.198Z,74.15
2023-05-17T04:08:35.121Z,74.07
2023-05-17T04:11:10.635Z,74.21
2023-05-17T04:13:40.684Z,74.30
2023-05-17T04:16:08.950Z,74.39
2023-05-17T04:18:37.184Z,74.47
2023-05-17T04:21:05.080Z,74.55
2023-05-17T04:23:33.042Z,74.07
2023-05-17T04:25:59.950Z,74.45
2023-05-17T04:28:27.185Z,74.56
2023-05-17T04:30:54.335Z,74.42
2023-05-17T04:33:21.181Z,74.75
2023-05-17T04:35:48.104Z,75.27
2023-05-17T04:38:14.825Z,75.30
2023-05-17T04:40:42.431Z,75.34
2023-05-17T04:43:09.345Z,75.37
2023-05-17T04:45:37.503Z,75.96
2023-05-17T04:48:04.966Z,75.81
2023-05-17T04:50:31.699Z,75.70
2023-05-17T04:52:58.412Z,76.17
2023-05-17T04:55:25.320Z,75.84
2023-05-17T04:57:52.424Z,76.06
2023-05-17T05:00:20.992Z,75.92
2023-05-17T05:02:48.148Z,75.79
2023-05-17T05:05:14.895Z,76.27
2023-05-17T05:07:41.660Z,75.83
2023-05-17T05:10:08.842Z,76.01
2023-05-17T05:12:35.571Z,75.77
2023-05-17T05:15:02.270Z,75.68
2023-05-17T05:17:31.068Z,75.92
2023-05-17T05:19:58.160Z,75.40
2023-05-17T05:22:25.360Z,75.72
2023-05-17T05:24:52.540Z,75.55
2023-05-17T05:27:19.207Z,75.62
2023-05-17T05:29:46.512Z,75.87
2023-05-17T05:32:13.227Z,75.75
2023-05-17T05:34:40.408Z,75.78
2023-05-17T05:37:07.138Z,76.26
2023-05-17T05:39:33.822Z,75.96
2023-05-17T05:42:00.680Z,76.27
2023-05-17T05:44:27.428Z,76.41
2023-05-17T05:46:54.146Z,76.10
2023-05-17T05:49:20.961Z,76.36
2023-05-17T05:51:47.635Z,76.51
2023-05-17T05:54:14.587Z,76.48
2023-05-17T05:56:41.249Z,76.19
2023-05-17T05:59:08.109Z,76.41
2023-05-17T06:01:35.011Z,76.09
2023-05-17T06:04:01.672Z,76.59
2023-05-17T06:06:28.518Z,76.48
2023-05-17T06:08:56.589Z,76.33
2023-05-17T06:11:26.196Z,76.04
2023-05-17T06:13:52.879Z,76.47
2023-05-17T06:16:19.536Z,76.56
2023-05-17T06:18:48.677Z,76.63
2023-05-17T06:21:18.468Z,76.56
2023-05-17T06:23:45.256Z,76.87
2023-05-17T06:26:12.024Z,77.18
2023-05-17T06:28:38.701Z,77.17
2023-05-17T06:31:05.430Z,76.91
2023-05-17T06:33:32.229Z,76.72
2023-05-17T06:35:59.324Z,76.53
2023-05-17T06:38:26.446Z,76.72
2023-05-17T06:40:57.550Z,76.69
2023-05-17T06:43:24.517Z,76.30
2023-05-17T06:45:51.613Z,76.77
2023-05-17T06:48:18.504Z,76.75
2023-05-17T06:50:45.281Z,76.63
2023-05-17T06:53:11.968Z,76.43
2023-05-17T06:55:38.964Z,76.24
2023-05-17T06:58:05.721Z,76.42
2023-05-17T07:00:33.107Z,76.42
2023-05-17T07:03:00.161Z,76.46
2023-05-17T07:05:29.338Z,76.53
2023-05-17T07:07:58.740Z,76.84
2023-05-17T07:10:25.497Z,76.44
2023-05-17T07:12:52.948Z,76.03
2023-05-17T07:15:20.169Z,75.89
2023-05-17T07:17:46.947Z,75.65
2023-05-17T07:20:14.809Z,75.56
2023-05-17T07:22:41.798Z,75.04
2023-05-17T07:25:09.190Z,75.16
2023-05-17T07:27:36.006Z,75.17
2023-05-17T07:30:03.576Z,75.55
2023-05-17T07:32:30.344Z,76.26
2023-05-17T07:34:57.161Z,76.36
2023-05-17T07:37:23.876Z,76.39
2023-05-17T07:39:50.774Z,76.75
2023-05-17T07:42:17.485Z,76.53
2023-05-17T07:44:44.398Z,76.63
2023-05-17T07:47:11.134Z,77.39
2023-05-17T07:49:37.975Z,77.65
2023-05-17T07:52:04.957Z,77.42
2023-05-17T07:54:31.640Z,77.48
2023-05-17T07:56:59.856Z,77.89
2023-05-17T07:59:26.667Z,77.60
2023-05-17T08:01:54.097Z,77.66
2023-05-17T08:04:21.074Z,77.74
2023-05-17T08:06:48.564Z,78.25
2023-05-17T08:09:20.014Z,78.11
2023-05-17T08:11:47.125Z,78.07
2023-05-17T08:14:15.078Z,78.26
2023-05-17T08:16:46.496Z,78.31
2023-05-17T08:19:15.079Z,78.60
2023-05-17T08:21:42.681Z,78.68
2023-05-17T08:24:10.136Z,78.61
2023-05-17T08:26:36.926Z,78.18
2023-05-17T08:29:04.840Z,78.38
2023-05-17T08:31:32.583Z,78.75
2023-05-17T08:33:59.455Z,78.54
2023-05-17T08:36:26.332Z,78.20
2023-05-17T08:38:53.198Z,78.45
2023-05-17T08:41:21.177Z,78.37
2023-05-17T08:43:49.401Z,78.92
2023-05-17T08:46:18.666Z,78.16
2023-05-17T08:48:47.322Z,78.08
2023-05-17T08:51:15.284Z,78.28
2023-05-17T08:53:42.635Z,78.38
2023-05-17T08:56:12.985Z,78.34
2023-05-17T08:58:55.541Z,79.08
2023-05-17T09:01:25.829Z,78.69
2023-05-17T09:03:54.007Z,79.29
2023-05-17T09:06:22.793Z,78.66
2023-05-17T09:08:54.828Z,78.90
2023-05-17T09:11:27.893Z,79.29
2023-05-17T09:13:58.465Z,79.16
2023-05-17T09:16:26.548Z,79.96
2023-05-17T09:18:57.425Z,79.89
2023-05-17T09:21:28.364Z,79.98
2023-05-17T09:24:05.233Z,79.53
2023-05-17T09:26:39.575Z,79.70
2023-05-17T09:29:14.789Z,80.02
2023-05-17T09:31:42.497Z,80.33
2023-05-17T09:34:09.708Z,80.40
2023-05-17T09:36:38.443Z,79.97
2023-05-17T09:39:08.160Z,80.47
2023-05-17T09:41:46.988Z,80.37
2023-05-17T09:44:14.951Z,80.13
2023-05-17T09:46:45.809Z,80.27
2023-05-17T09:49:13.528Z,80.38
2023-05-17T09:51:42.816Z,80.87
2023-05-17T09:54:10.856Z,80.68
2023-05-17T09:56:38.161Z,80.96
2023-05-17T09:59:15.337Z,80.65
2023-05-17T10:01:45.211Z,81.14
2023-05-17T10:04:13.596Z,81.01
2023-05-17T10:09:14.823Z,81.83
2023-05-17T10:11:47.242Z,81.67
2023-05-17T10:14:33.563Z,81.56
2023-05-17T10:17:05.969Z,81.51
2023-05-17T10:19:33.413Z,81.55
2023-05-17T10:22:19.029Z,81.76
2023-05-17T10:24:51.496Z,81.98
2023-05-17T10:27:19.095Z,82.34
2023-05-17T10:29:49.885Z,82.38
2023-05-17T10:32:19.709Z,82.34
2023-05-17T10:34:54.495Z,82.31
2023-05-17T10:37:30.209Z,82.16
2023-05-17T10:39:57.382Z,82.74
2023-05-17T10:42:26.418Z,82.74
2023-05-17T10:44:54.691Z,82.39
2023-05-17T10:47:22.376Z,82.48
2023-05-17T10:49:51.578Z,82.82
2023-05-17T10:52:21.576Z,82.87
2023-05-17T10:54:52.950Z,82.56
2023-05-17T10:57:50.567Z,82.19
2023-05-17T11:00:21.664Z,82.88
2023-05-17T11:02:49.170Z,82.59
2023-05-17T11:05:27.347Z,82.56
2023-05-17T11:08:13.206Z,82.80
2023-05-17T11:10:50.447Z,82.32
2023-05-17T11:13:26.351Z,82.19
2023-05-17T11:16:15.295Z,82.43
2023-05-17T11:18:48.258Z,82.50
2023-05-17T11:21:16.341Z,82.49
2023-05-17T11:23:44.799Z,82.17
2023-05-17T11:26:36.916Z,82.50
2023-05-17T11:29:08.893Z,82.27
2023-05-17T11:31:37.481Z,81.89
2023-05-17T11:34:05.107Z,82.08
2023-05-17T11:36:49.114Z,82.50
2023-05-17T11:39:19.322Z,82.57
2023-05-17T11:41:54.309Z,81.98
2023-05-17T11:44:31.636Z,81.15
2023-05-17T11:47:11.563Z,81.26
2023-05-17T11:49:39.522Z,81.34
2023-05-17T11:52:07.098Z,81.07
2023-05-17T11:54:34.764Z,81.27
2023-05-17T11:57:03.947Z,82.00
2023-05-17T11:59:38.532Z,81.83
2023-05-17T12:02:05.833Z,82.16
2023-05-17T12:04:38.190Z,81.88
2023-05-17T12:07:08.343Z,81.99
2023-05-17T12:09:35.467Z,82.14
2023-05-17T12:12:06.144Z,81.61
2023-05-17T12:14:33.055Z,81.41
2023-05-17T12:17:02.678Z,81.29
2023-05-17T12:19:30.111Z,81.96
2023-05-17T12:22:12.956Z,81.74
2023-05-17T12:24:43.755Z,81.47
2023-05-17T12:27:11.270Z,81.75
2023-05-17T12:29:39.299Z,81.78
2023-05-17T12:32:08.335Z,81.13
2023-05-17T12:34:35.671Z,81.50
2023-05-17T12:37:02.715Z,81.06
2023-05-17T12:39:31.554Z,81.25
2023-05-17T12:41:59.025Z,81.13
2023-05-17T12:44:26.064Z,81.02
2023-05-17T12:46:56.311Z,81.24
2023-05-17T12:49:23.570Z,81.22
2023-05-17T12:51:50.340Z,81.07
2023-05-17T12:54:29.897Z,80.59
2023-05-17T12:56:56.868Z,80.76
2023-05-17T12:59:28.823Z,80.50
2023-05-17T13:01:57.073Z,81.09
2023-05-17T13:04:32.425Z,80.72
2023-05-17T13:07:01.703Z,80.12
2023-05-17T13:09:33.439Z,79.59
2023-05-17T13:12:08.150Z,80.28
2023-05-17T13:14:47.309Z,80.46
2023-05-17T13:17:22.958Z,79.85
2023-05-17T13:19:50.009Z,80.12
2023-05-17T13:22:16.832Z,80.23
2023-05-17T13:24:47.135Z,80.38
2023-05-17T13:27:13.960Z,80.33
2023-05-17T13:29:42.634Z,80.49
2023-05-17T13:32:11.835Z,80.32
2023-05-17T13:34:39.636Z,80.58
2023-05-17T13:37:10.340Z,80.03
2023-05-17T13:39:38.569Z,79.82
2023-05-17T13:42:05.772Z,80.30
2023-05-17T13:44:32.715Z,80.59
2023-05-17T13:46:59.498Z,80.18
2023-05-17T13:49:26.664Z,80.75
2023-05-17T13:51:53.356Z,80.73
2023-05-17T13:54:25.902Z,80.53
2023-05-17T13:56:53.772Z,80.32
2023-05-17T13:59:20.430Z,80.21
2023-05-17T14:01:47.091Z,80.00
2023-05-17T14:04:13.896Z,80.01
2023-05-17T14:06:42.144Z,80.03
2023-05-17T14:09:08.941Z,80.07
2023-05-17T14:11:35.711Z,80.38
2023-05-17T14:14:03.512Z,80.20
2023-05-17T14:16:30.170Z,80.09
2023-05-17T14:18:56.903Z,80.64
2023-05-17T14:21:23.699Z,80.65
2023-05-17T14:23:50.360Z,80.83
2023-05-17T14:26:17.121Z,80.49
2023-05-17T14:28:43.932Z,80.62
2023-05-17T14:31:13.839Z,80.98
2023-05-17T14:33:40.582Z,81.07
2023-05-17T14:36:07.536Z,81.28
2023-05-17T14:38:34.320Z,80.98
2023-05-17T14:41:02.314Z,81.07
2023-05-17T14:43:29.180Z,80.78
2023-05-17T14:45:55.937Z,80.76
2023-05-17T14:48:23.003Z,80.61
2023-05-17T14:50:50.068Z,81.09
2023-05-17T14:53:16.784Z,80.81
2023-05-17T14:55:43.743Z,80.87
2023-05-17T14:58:13.561Z,80.57
2023-05-17T15:00:41.915Z,81.06
2023-05-17T15:03:09.204Z,81.16
2023-05-17T15:05:37.879Z,80.86
2023-05-17T15:08:04.700Z,80.73
2023-05-17T15:10:31.906Z,81.06
2023-05-17T15:12:58.612Z,81.22
2023-05-17T15:15:25.378Z,81.15
2023-05-17T15:17:52.897Z,81.25
2023-05-17T15:20:20.421Z,81.34
2023-05-17T15:22:48.320Z,81.41
2023-05-17T15:25:15.632Z,81.62
2023-05-17T15:27:42.295Z,81.88
2023-05-17T15:30:11.339Z,81.94
2023-05-17T15:32:39.437Z,81.59
2023-05-17T15:35:07.107Z,81.87
2023-05-17T15:37:33.936Z,81.77
2023-05-17T15:40:11.066Z,81.71
2023-05-17T15:42:37.772Z,81.56
2023-05-17T15:45:05.260Z,81.27
2023-05-17T15:47:42.413Z,81.13
2023-05-17T15:50:11.240Z,81.53
2023-05-17T15:52:38.099Z,81.48
2023-05-17T15:55:05.395Z,81.56
2023-05-17T15:57:32.329Z,80.99
2023-05-17T15:59:59.069Z,81.13
2023-05-17T16:02:26.054Z,81.24
2023-05-17T16:04:52.740Z,81.31
2023-05-17T16:07:19.414Z,81.15
2023-05-17T16:09:46.246Z,80.65
2023-05-17T16:12:12.935Z,80.98
2023-05-17T16:14:40.844Z,80.70
2023-05-17T16:17:07.663Z,80.71
2023-05-17T16:19:34.680Z,80.40
2023-05-17T16:22:01.561Z,80.79
2023-05-17T16:24:28.386Z,81.21
2023-05-17T16:26:55.065Z,80.61
2023-05-17T16:29:21.769Z,80.64
2023-05-17T16:31:48.731Z,80.15
2023-05-17T16:34:15.526Z,79.28
2023-05-17T16:36:42.476Z,78.88
2023-05-17T16:39:09.116Z,77.90
2023-05-17T16:41:36.136Z,77.35
2023-05-17T16:44:02.823Z,76.64
2023-05-17T16:46:29.593Z,76.15
2023-05-17T16:48:56.507Z,76.24
2023-05-17T16:51:23.216Z,76.15
2023-05-17T16:53:50.037Z,76.16
2023-05-17T16:56:16.845Z,75.95
2023-05-17T16:58:43.566Z,76.51
2023-05-17T17:01:10.293Z,76.39
2023-05-17T17:03:37.010Z,75.76
2023-05-17T17:06:03.861Z,75.72
2023-05-17T17:08:30.635Z,75.71
2023-05-17T17:10:57.321Z,76.22
2023-05-17T17:13:23.960Z,75.63
2023-05-17T17:15:51.510Z,76.34
2023-05-17T17:18:18.387Z,76.17
2023-05-17T17:20:45.399Z,76.22
2023-05-17T17:23:12.734Z,76.12
2023-05-17T17:25:39.505Z,76.28
2023-05-17T17:28:06.407Z,77.10
2023-05-17T17:30:33.099Z,77.43
2023-05-17T17:32:59.882Z,77.97
2023-05-17T17:35:26.678Z,77.71
2023-05-17T17:37:53.384Z,77.76
2023-05-17T17:40:20.524Z,77.15
2023-05-17T17:42:47.347Z,76.17
2023-05-17T17:45:14.095Z,75.85
2023-05-17T17:47:42.291Z,75.34
2023-05-17T17:50:09.443Z,75.91
2023-05-17T17:52:37.647Z,76.15
2023-05-17T17:55:05.211Z,75.53
2023-05-17T17:57:33.760Z,75.19
2023-05-17T18:00:00.449Z,74.32
2023-05-17T18:02:27.209Z,73.46
2023-05-17T18:04:54.106Z,73.56
2023-05-17T18:07:20.881Z,73.17
2023-05-17T18:09:47.638Z,73.45
2023-05-17T18:12:14.306Z,73.75
2023-05-17T18:14:41.077Z,74.03
2023-05-17T18:17:08.271Z,74.09
2023-05-17T18:19:35.026Z,73.67
2023-05-17T18:22:02.380Z,73.76
2023-05-17T18:24:29.081Z,73.46
2023-05-17T18:26:55.796Z,73.07
2023-05-17T18:29:22.508Z,73.28
2023-05-17T18:31:49.336Z,73.56
2023-05-17T18:34:16.125Z,73.67
2023-05-17T18:36:42.793Z,73.31
2023-05-17T18:39:09.828Z,73.85
2023-05-17T18:41:36.523Z,73.95
2023-05-17T18:44:03.398Z,74.20
2023-05-17T18:46:31.494Z,73.84
2023-05-17T18:48:58.196Z,74.26
2023-05-17T18:51:24.901Z,74.11
2023-05-17T18:53:51.709Z,74.40
2023-05-17T18:56:22.812Z,74.16
2023-05-17T18:58:55.566Z,73.89
2023-05-17T19:01:22.364Z,74.51
2023-05-17T19:03:51.682Z,73.87
2023-05-17T19:06:19.768Z,74.15
2023-05-17T19:08:46.828Z,74.91
2023-05-17T19:11:13.545Z,74.85
2023-05-17T19:13:40.405Z,74.41
2023-05-17T19:16:07.687Z,74.49
2023-05-17T19:18:34.754Z,75.12
2023-05-17T19:21:01.739Z,75.18
2023-05-17T19:23:28.468Z,75.10
2023-05-17T19:25:55.261Z,75.14
2023-05-17T19:28:22.051Z,75.30
2023-05-17T19:30:49.892Z,75.18
2023-05-17T19:33:16.576Z,75.48
2023-05-17T19:35:43.270Z,75.30
2023-05-17T19:38:10.537Z,75.83
2023-05-17T19:40:38.328Z,75.05
2023-05-17T19:43:04.991Z,75.34
2023-05-17T19:45:31.704Z,75.26
2023-05-17T19:47:58.490Z,75.32
2023-05-17T19:50:25.783Z,74.92
2023-05-17T19:52:52.993Z,75.20
2023-05-17T19:55:25.808Z,75.46
2023-05-17T19:57:52.573Z,75.43
2023-05-17T20:00:19.451Z,75.94
2023-05-17T20:02:49.363Z,75.85
2023-05-17T20:05:19.441Z,75.87
2023-05-17T20:07:46.180Z,75.97
2023-05-17T20:10:13.214Z,76.01
2023-05-17T20:12:40.982Z,75.97
2023-05-17T20:15:08.686Z,76.00
2023-05-17T20:17:37.011Z,76.04
2023-05-17T20:20:08.585Z,75.96
2023-05-17T20:22:40.253Z,76.16
2023-05-17T20:25:07.038Z,76.29
2023-05-17T20:27:33.783Z,76.27
2023-05-17T20:30:00.491Z,76.17
2023-05-17T20:32:27.260Z,76.32
2023-05-17T20:34:54.048Z,76.08
2023-05-17T20:37:20.714Z,76.63
2023-05-17T20:39:49.671Z,76.63
2023-05-17T20:42:18.212Z,76.72
2023-05-17T20:44:45.307Z,76.97
2023-05-17T20:47:14.681Z,76.88
2023-05-17T20:49:41.332Z,77.02
2023-05-17T20:52:08.035Z,77.06
2023-05-17T20:54:34.716Z,76.97
2023-05-17T20:57:02.093Z,77.35
2023-05-17T20:59:28.756Z,76.99
2023-05-17T21:01:56.098Z,77.14
2023-05-17T21:04:22.975Z,77.16
2023-05-17T21:06:49.680Z,77.30
2023-05-17T21:09:18.902Z,77.07
2023-05-17T21:11:45.876Z,76.90
2023-05-17T21:14:12.591Z,77.01
2023-05-17T21:16:39.308Z,77.04
2023-05-17T21:19:06.196Z,76.82
2023-05-17T21:21:32.928Z,76.75
2023-05-17T21:23:59.661Z,76.90
2023-05-17T21:28:54.850Z,76.61
2023-05-17T21:31:21.719Z,76.66
2023-05-17T21:33:49.693Z,76.85
2023-05-17T21:36:16.347Z,77.26
2023-05-17T21:38:43.130Z,76.98
2023-05-17T21:41:09.966Z,77.03
2023-05-17T21:43:36.605Z,76.94
2023-05-17T21:46:03.336Z,76.88
2023-05-17T21:48:30.229Z,76.81
2023-05-17T21:50:57.000Z,76.89
2023-05-17T21:53:23.675Z,77.13
2023-05-17T21:56:01.177Z,77.17
2023-05-17T21:58:28.615Z,77.42
2023-05-17T22:00:55.328Z,77.12
2023-05-17T22:03:22.308Z,77.53
2023-05-17T22:05:49.306Z,77.20
2023-05-17T22:08:16.105Z,77.54
2023-05-17T22:10:42.778Z,77.36
2023-05-17T22:13:12.398Z,77.44
2023-05-17T22:15:39.321Z,77.00
2023-05-17T22:18:06.085Z,77.32
2023-05-17T22:20:32.947Z,76.88
2023-05-17T22:22:59.731Z,76.84
2023-05-17T22:25:26.482Z,76.86
2023-05-17T22:27:53.217Z,76.51
2023-05-17T22:30:19.891Z,76.59
2023-05-17T22:32:46.842Z,76.81
2023-05-17T22:35:13.679Z,76.28
2023-05-17T22:37:42.814Z,76.55
2023-05-17T22:40:10.995Z,76.55
2023-05-17T22:42:37.801Z,76.71
2023-05-17T22:45:04.854Z,76.37
2023-05-17T22:47:32.071Z,76.14
2023-05-17T22:50:00.865Z,75.84
2023-05-17T22:52:27.695Z,75.95
2023-05-17T22:54:54.426Z,75.94
2023-05-17T22:57:21.105Z,75.71
2023-05-17T22:59:47.801Z,75.92
2023-05-17T23:02:14.618Z,75.74
2023-05-17T23:04:41.464Z,75.54
2023-05-17T23:07:10.021Z,75.41
2023-05-17T23:09:40.856Z,75.77
2023-05-17T23:12:08.915Z,75.52
2023-05-17T23:14:36.740Z,75.23
2023-05-17T23:17:04.846Z,75.28
2023-05-17T23:19:33.311Z,74.80
2023-05-17T23:22:03.329Z,75.13
2023-05-17T23:24:30.225Z,74.88
2023-05-17T23:26:57.681Z,74.38
2023-05-17T23:29:25.963Z,74.17
2023-05-17T23:31:53.205Z,73.85
2023-05-17T23:34:19.982Z,73.63
2023-05-17T23:36:46.701Z,73.31
2023-05-17T23:39:13.363Z,73.11
2023-05-17T23:41:40.064Z,72.80
2023-05-17T23:44:07.272Z,72.54
2023-05-17T23:46:34.388Z,72.97
2023-05-17T23:49:02.421Z,72.73
2023-05-17T23:51:29.179Z,72.70
2023-05-17T23:53:55.870Z,72.40
2023-05-17T23:56:23.268Z,72.06
2023-05-17T23:58:50.175Z,72.12
